M I D A S
Marine Information and Data Acquisition System
Tripno 1708 of the Zeeleeuw from 2009-06-11 07:40:00 to 2009-06-12 14:09:40
Back to CruiseResearch ActivitiesStationsMapUnderway DataData graphs

EquipmentUnitsComment
TimeDGPSUTC
LatitudeDGPSDM.mWGS84
LongitudeDGPSDM.mWGS84
HeadingGyrodeg 
SOGDGPSknotsSpeed over ground
COGDGPSdegCourse over ground
DepthEcho soundermeters200 kHz
Missing or incorrect values are displayed as -999
Navigation data collected by the RV Zeeleeuw from 2009-06-11 07:40:00 to 2009-06-12 14:09:40
                                                                                    Next 1000 lines
Time Latitude Longitude Heading SOG COG Depth
2009-06-11 07:40:20 51°13.598 2°56.09 116.5 0.1 270 -999
2009-06-11 07:40:30 51°13.6 2°56.084 116.5 0.1 270 -999
2009-06-11 07:40:40 51°13.603 2°56.075 116.5 0.1 270 -999
2009-06-11 07:40:50 51°13.606 2°56.066 116.5 0.1 270 -999
2009-06-11 07:41:00 51°13.61 2°56.055 117.7 2.79 300 -999
2009-06-11 07:41:10 51°13.613 2°56.044 117.7 2.79 300 -999
2009-06-11 07:41:20 51°13.617 2°56.032 117.7 2.79 300 -999
2009-06-11 07:41:30 51°13.621 2°56.021 117.7 2.79 300 -999
2009-06-11 07:41:40 51°13.625 2°56.009 117.7 2.79 300 -999
2009-06-11 07:41:50 51°13.63 2°55.997 117.7 2.79 300 -999
2009-06-11 07:42:00 51°13.634 2°55.985 117.7 3.1 299 -999
2009-06-11 07:42:10 51°13.638 2°55.973 117.7 3.1 299 -999
2009-06-11 07:42:20 51°13.643 2°55.96 117.7 3.1 299 -999
2009-06-11 07:42:30 51°13.647 2°55.947 117.7 3.1 299 -999
2009-06-11 07:42:40 51°13.652 2°55.934 117.7 3.1 299 -999
2009-06-11 07:42:50 51°13.656 2°55.92 117.7 3.1 299 -999
2009-06-11 07:43:00 51°13.661 2°55.905 117.7 3.7 297 -999
2009-06-11 07:43:10 51°13.666 2°55.889 117.7 3.7 297 -999
2009-06-11 07:43:20 51°13.671 2°55.874 117.7 3.7 297 -999
2009-06-11 07:43:30 51°13.676 2°55.859 117.7 3.7 297 -999
2009-06-11 07:43:40 51°13.681 2°55.844 117.7 3.7 297 -999
2009-06-11 07:43:50 51°13.686 2°55.829 117.7 3.7 297 -999
2009-06-11 07:44:00 51°13.691 2°55.815 116.9 3.6 298 -999
2009-06-11 07:44:10 51°13.695 2°55.801 116.9 3.6 298 -999
2009-06-11 07:44:20 51°13.699 2°55.788 116.9 3.6 298 -999
2009-06-11 07:44:30 51°13.703 2°55.775 116.9 3.6 298 -999
2009-06-11 07:44:40 51°13.706 2°55.763 116.9 3.6 298 -999
2009-06-11 07:44:50 51°13.709 2°55.752 116.9 3.6 298 -999
2009-06-11 07:45:00 51°13.711 2°55.743 104.5 2 290 -999
2009-06-11 07:45:10 51°13.712 2°55.739 104.5 2 290 -999
2009-06-11 07:45:20 51°13.713 2°55.739 104.5 2 290 -999
2009-06-11 07:45:30 51°13.714 2°55.74 104.5 2 290 -999
2009-06-11 07:45:40 51°13.716 2°55.74 104.5 2 290 -999
2009-06-11 07:45:50 51°13.716 2°55.737 104.5 2 290 -999
2009-06-11 07:46:00 51°13.715 2°55.732 62.7 1.3 254 -999
2009-06-11 07:46:10 51°13.714 2°55.727 62.7 1.3 254 -999
2009-06-11 07:46:20 51°13.713 2°55.723 62.7 1.3 254 -999
2009-06-11 07:46:30 51°13.714 2°55.721 62.7 1.3 254 -999
2009-06-11 07:46:40 51°13.716 2°55.721 62.7 1.3 254 -999
2009-06-11 07:46:50 51°13.718 2°55.722 62.7 1.3 254 -999
2009-06-11 07:47:00 51°13.722 2°55.723 21.5 1.5 2 -999
2009-06-11 07:47:10 51°13.727 2°55.722 21.5 1.5 2 -999
2009-06-11 07:47:20 51°13.733 2°55.72 21.5 1.5 2 -999
2009-06-11 07:47:30 51°13.739 2°55.716 21.5 1.5 2 -999
2009-06-11 07:47:40 51°13.746 2°55.71 21.5 1.5 2 -999
2009-06-11 07:47:50 51°13.756 2°55.7 21.5 1.5 2 -999
2009-06-11 07:48:00 51°13.766 2°55.69 331.1 4.59 328 -999
2009-06-11 07:48:10 51°13.779 2°55.678 331.1 4.59 328 -999
2009-06-11 07:48:20 51°13.793 2°55.665 331.1 4.59 328 -999
2009-06-11 07:48:30 51°13.809 2°55.652 331.1 4.59 328 -999
2009-06-11 07:48:40 51°13.826 2°55.639 331.1 4.59 328 -999
2009-06-11 07:48:50 51°13.843 2°55.625 331.1 4.59 328 -999
2009-06-11 07:49:00 51°13.862 2°55.611 335.6 7.4 335 -999
2009-06-11 07:49:10 51°13.88 2°55.596 335.6 7.4 335 -999
2009-06-11 07:49:20 51°13.899 2°55.582 335.6 7.4 335 -999
2009-06-11 07:49:30 51°13.919 2°55.567 335.6 7.4 335 -999
2009-06-11 07:49:40 51°13.939 2°55.552 335.6 7.4 335 -999
2009-06-11 07:49:50 51°13.959 2°55.538 335.6 7.4 335 -999
2009-06-11 07:50:00 51°13.978 2°55.523 336.1 7.9 334 -999
2009-06-11 07:50:10 51°13.998 2°55.508 336.1 7.9 334 -999
2009-06-11 07:50:20 51°14.018 2°55.493 336.1 7.9 334 -999
2009-06-11 07:50:30 51°14.038 2°55.478 336.1 7.9 334 -999
2009-06-11 07:50:40 51°14.058 2°55.463 336.1 7.9 334 -999
2009-06-11 07:50:50 51°14.079 2°55.448 336.1 7.9 334 -999
2009-06-11 07:51:00 51°14.101 2°55.432 336.8 8.4 335 -999
2009-06-11 07:51:10 51°14.124 2°55.414 336.8 8.4 335 -999
2009-06-11 07:51:20 51°14.145 2°55.397 336.8 8.4 335 -999
2009-06-11 07:51:30 51°14.165 2°55.378 336.8 8.4 335 -999
2009-06-11 07:51:40 51°14.185 2°55.358 336.8 8.4 335 -999
2009-06-11 07:51:50 51°14.204 2°55.336 336.8 8.4 335 -999
2009-06-11 07:52:00 51°14.223 2°55.312 324.1 8.5 320 -999
2009-06-11 07:52:10 51°14.239 2°55.289 324.1 8.5 320 -999
2009-06-11 07:52:20 51°14.256 2°55.262 324.1 8.5 320 -999
2009-06-11 07:52:30 51°14.272 2°55.234 324.1 8.5 320 -999
2009-06-11 07:52:40 51°14.289 2°55.206 324.1 8.5 320 -999
2009-06-11 07:52:50 51°14.306 2°55.177 324.1 8.5 320 -999
2009-06-11 07:53:00 51°14.323 2°55.147 315 9.09 312 -999
2009-06-11 07:53:10 51°14.34 2°55.118 315 9.09 312 -999
2009-06-11 07:53:20 51°14.358 2°55.088 315 9.09 312 -999
2009-06-11 07:53:30 51°14.375 2°55.057 315 9.09 312 -999
2009-06-11 07:53:40 51°14.392 2°55.026 315 9.09 312 -999
2009-06-11 07:53:50 51°14.407 2°54.992 315 9.09 312 -999
2009-06-11 07:54:00 51°14.417 2°54.955 303 9.09 290 -999
2009-06-11 07:54:10 51°14.423 2°54.915 303 9.09 290 -999
2009-06-11 07:54:20 51°14.424 2°54.875 303 9.09 290 -999
2009-06-11 07:54:30 51°14.421 2°54.831 303 9.09 290 -999
2009-06-11 07:54:40 51°14.416 2°54.789 303 9.09 290 -999
2009-06-11 07:54:50 51°14.412 2°54.746 303 9.09 290 -999
2009-06-11 07:55:00 51°14.407 2°54.706 263.6 10.4 258 -999
2009-06-11 07:55:10 51°14.4 2°54.66 263.6 10.4 258 -999
2009-06-11 07:55:20 51°14.394 2°54.612 263.6 10.4 258 -999
2009-06-11 07:55:30 51°14.387 2°54.565 263.6 10.4 258 -999
2009-06-11 07:55:40 51°14.38 2°54.516 263.6 10.4 258 -999
2009-06-11 07:55:50 51°14.373 2°54.467 263.6 10.4 258 -999
2009-06-11 07:56:00 51°14.366 2°54.417 260.8 11.8 257 -999
2009-06-11 07:56:10 51°14.358 2°54.366 260.8 11.8 257 -999
2009-06-11 07:56:20 51°14.349 2°54.314 260.8 11.8 257 -999
2009-06-11 07:56:30 51°14.341 2°54.261 260.8 11.8 257 -999
2009-06-11 07:56:40 51°14.331 2°54.208 260.8 11.8 257 -999
2009-06-11 07:56:50 51°14.32 2°54.155 260.8 11.8 257 -999
2009-06-11 07:57:00 51°14.308 2°54.103 253 12.59 248 -999
2009-06-11 07:57:10 51°14.295 2°54.051 253 12.59 248 -999
2009-06-11 07:57:20 51°14.281 2°54 253 12.59 248 -999
2009-06-11 07:57:30 51°14.266 2°53.948 253 12.59 248 -999
2009-06-11 07:57:40 51°14.252 2°53.897 253 12.59 248 -999
2009-06-11 07:57:50 51°14.237 2°53.845 253 12.59 248 -999
2009-06-11 07:58:00 51°14.222 2°53.794 248.3 12.69 245 -999
2009-06-11 07:58:10 51°14.208 2°53.743 248.3 12.69 245 -999
2009-06-11 07:58:20 51°14.193 2°53.692 248.3 12.69 245 -999
2009-06-11 07:58:30 51°14.179 2°53.642 248.3 12.69 245 -999
2009-06-11 07:58:40 51°14.164 2°53.592 248.3 12.69 245 -999
2009-06-11 07:58:50 51°14.149 2°53.542 248.3 12.69 245 -999
2009-06-11 07:59:00 51°14.134 2°53.491 247.8 12.5 246 -999
2009-06-11 07:59:10 51°14.118 2°53.436 247.8 12.5 246 -999
2009-06-11 07:59:20 51°14.103 2°53.387 247.8 12.5 246 -999
2009-06-11 07:59:30 51°14.088 2°53.337 247.8 12.5 246 -999
2009-06-11 07:59:40 51°14.073 2°53.288 247.8 12.5 246 -999
2009-06-11 07:59:50 51°14.058 2°53.238 247.8 12.5 246 -999
2009-06-11 08:00:00 51°14.044 2°53.188 247.4 12.5 244 -999
2009-06-11 08:00:10 51°14.03 2°53.138 247.4 12.5 244 -999
2009-06-11 08:00:20 51°14.016 2°53.088 247.4 12.5 244 -999
2009-06-11 08:00:30 51°14.001 2°53.037 247.4 12.5 244 -999
2009-06-11 08:00:40 51°13.987 2°52.986 247.4 12.5 244 -999
2009-06-11 08:00:50 51°13.973 2°52.936 247.4 12.5 244 -999
2009-06-11 08:01:00 51°13.958 2°52.886 248.4 12.59 243 -999
2009-06-11 08:01:10 51°13.943 2°52.836 248.4 12.59 243 -999
2009-06-11 08:01:20 51°13.927 2°52.786 248.4 12.59 243 -999
2009-06-11 08:01:30 51°13.912 2°52.736 248.4 12.59 243 -999
2009-06-11 08:01:40 51°13.897 2°52.686 248.4 12.59 243 -999
2009-06-11 08:01:50 51°13.881 2°52.638 248.4 12.59 243 -999
2009-06-11 08:02:00 51°13.866 2°52.588 244.4 12.5 244 -999
2009-06-11 08:02:10 51°13.851 2°52.544 244.4 12.5 244 -999
2009-06-11 08:02:20 51°13.835 2°52.495 244.4 12.5 244 -999
2009-06-11 08:02:30 51°13.82 2°52.445 244.4 12.5 244 -999
2009-06-11 08:02:40 51°13.804 2°52.395 244.4 12.5 244 -999
2009-06-11 08:02:50 51°13.788 2°52.346 244.4 12.5 244 -999
2009-06-11 08:03:00 51°13.772 2°52.297 245.6 12.5 241 -999
2009-06-11 08:03:10 51°13.756 2°52.249 245.6 12.5 241 -999
2009-06-11 08:03:20 51°13.741 2°52.2 245.6 12.5 241 -999
2009-06-11 08:03:30 51°13.725 2°52.15 245.6 12.5 241 -999
2009-06-11 08:03:40 51°13.708 2°52.102 245.6 12.5 241 -999
2009-06-11 08:03:50 51°13.692 2°52.053 245.6 12.5 241 -999
2009-06-11 08:04:00 51°13.675 2°52.004 244 12.5 242 -999
2009-06-11 08:04:10 51°13.66 2°51.954 244 12.5 242 -999
2009-06-11 08:04:20 51°13.643 2°51.905 244 12.5 242 -999
2009-06-11 08:04:30 51°13.627 2°51.857 244 12.5 242 -999
2009-06-11 08:04:40 51°13.611 2°51.81 244 12.5 242 -999
2009-06-11 08:04:50 51°13.595 2°51.764 244 12.5 242 -999
2009-06-11 08:05:00 51°13.581 2°51.722 243.6 10.69 243 -999
2009-06-11 08:05:10 51°13.567 2°51.682 243.6 10.69 243 -999
2009-06-11 08:05:20 51°13.555 2°51.645 243.6 10.69 243 -999
2009-06-11 08:05:30 51°13.542 2°51.609 243.6 10.69 243 -999
2009-06-11 08:05:40 51°13.531 2°51.574 243.6 10.69 243 -999
2009-06-11 08:05:50 51°13.519 2°51.539 243.6 10.69 243 -999
2009-06-11 08:06:00 51°13.508 2°51.507 244.9 7.9 241 -999
2009-06-11 08:06:10 51°13.497 2°51.476 244.9 7.9 241 -999
2009-06-11 08:06:20 51°13.488 2°51.45 244.9 7.9 241 -999
2009-06-11 08:06:30 51°13.48 2°51.431 244.9 7.9 241 -999
2009-06-11 08:06:40 51°13.47 2°51.41 244.9 7.9 241 -999
2009-06-11 08:06:50 51°13.46 2°51.395 244.9 7.9 241 -999
2009-06-11 08:07:00 51°13.45 2°51.382 223.9 4.4 220 -999
2009-06-11 08:07:10 51°13.441 2°51.372 223.9 4.4 220 -999
2009-06-11 08:07:20 51°13.432 2°51.363 223.9 4.4 220 -999
2009-06-11 08:07:30 51°13.423 2°51.355 223.9 4.4 220 -999
2009-06-11 08:07:40 51°13.415 2°51.349 223.9 4.4 220 -999
2009-06-11 08:07:50 51°13.406 2°51.343 223.9 4.4 220 -999
2009-06-11 08:08:00 51°13.398 2°51.337 196 3.29 204 -999
2009-06-11 08:08:10 51°13.39 2°51.331 196 3.29 204 -999
2009-06-11 08:08:20 51°13.382 2°51.326 196 3.29 204 -999
2009-06-11 08:08:30 51°13.375 2°51.32 196 3.29 204 -999
2009-06-11 08:08:40 51°13.367 2°51.313 196 3.29 204 -999
2009-06-11 08:08:50 51°13.359 2°51.306 196 3.29 204 -999
2009-06-11 08:09:00 51°13.35 2°51.299 204.1 3.6 210 -999
2009-06-11 08:09:10 51°13.342 2°51.292 204.1 3.6 210 -999
2009-06-11 08:09:20 51°13.333 2°51.283 204.1 3.6 210 -999
2009-06-11 08:09:30 51°13.324 2°51.273 204.1 3.6 210 -999
2009-06-11 08:09:40 51°13.314 2°51.264 204.1 3.6 210 -999
2009-06-11 08:09:50 51°13.304 2°51.254 204.1 3.6 210 -999
2009-06-11 08:10:00 51°13.294 2°51.243 213.1 4.29 214 -999
2009-06-11 08:10:10 51°13.284 2°51.232 213.1 4.29 214 -999
2009-06-11 08:10:20 51°13.275 2°51.22 213.1 4.29 214 -999
2009-06-11 08:10:30 51°13.266 2°51.208 213.1 4.29 214 -999
2009-06-11 08:10:40 51°13.257 2°51.194 213.1 4.29 214 -999
2009-06-11 08:10:50 51°13.249 2°51.178 213.1 4.29 214 -999
2009-06-11 08:11:00 51°13.241 2°51.163 235.9 4.5 233 -999
2009-06-11 08:11:10 51°13.234 2°51.146 235.9 4.5 233 -999
2009-06-11 08:11:20 51°13.228 2°51.13 235.9 4.5 233 -999
2009-06-11 08:11:30 51°13.221 2°51.113 235.9 4.5 233 -999
2009-06-11 08:11:40 51°13.215 2°51.096 235.9 4.5 233 -999
2009-06-11 08:11:50 51°13.208 2°51.079 235.9 4.5 233 -999
2009-06-11 08:12:00 51°13.202 2°51.063 245 4.4 239 -999
2009-06-11 08:12:10 51°13.196 2°51.047 245 4.4 239 -999
2009-06-11 08:12:20 51°13.189 2°51.031 245 4.4 239 -999
2009-06-11 08:12:30 51°13.183 2°51.015 245 4.4 239 -999
2009-06-11 08:12:40 51°13.177 2°51 245 4.4 239 -999
2009-06-11 08:12:50 51°13.171 2°50.986 245 4.4 239 -999
2009-06-11 08:13:00 51°13.165 2°50.972 245 3.79 239 -999
2009-06-11 08:13:10 51°13.16 2°50.958 245 3.79 239 -999
2009-06-11 08:13:20 51°13.155 2°50.945 245 3.79 239 -999
2009-06-11 08:13:30 51°13.15 2°50.932 245 3.79 239 -999
2009-06-11 08:13:40 51°13.145 2°50.92 245 3.79 239 -999
2009-06-11 08:13:50 51°13.141 2°50.908 245 3.79 239 -999
2009-06-11 08:14:00 51°13.136 2°50.896 246.1 3.2 237 -999
2009-06-11 08:14:10 51°13.131 2°50.885 246.1 3.2 237 -999
2009-06-11 08:14:20 51°13.126 2°50.873 246.1 3.2 237 -999
2009-06-11 08:14:30 51°13.122 2°50.863 246.1 3.2 237 -999
2009-06-11 08:14:40 51°13.117 2°50.852 246.1 3.2 237 -999
2009-06-11 08:14:50 51°13.113 2°50.842 246.1 3.2 237 -999
2009-06-11 08:15:00 51°13.107 2°50.83 244.5 3 235 -999
2009-06-11 08:15:10 51°13.103 2°50.819 244.5 3 235 -999
2009-06-11 08:15:20 51°13.098 2°50.808 244.5 3 235 -999
2009-06-11 08:15:30 51°13.093 2°50.798 244.5 3 235 -999
2009-06-11 08:15:40 51°13.088 2°50.785 244.5 3 235 -999
2009-06-11 08:15:50 51°13.084 2°50.774 244.5 3 235 -999
2009-06-11 08:16:00 51°13.078 2°50.763 244.1 3.2 234 -999
2009-06-11 08:16:10 51°13.073 2°50.751 244.1 3.2 234 -999
2009-06-11 08:16:20 51°13.068 2°50.738 244.1 3.2 234 -999
2009-06-11 08:16:30 51°13.063 2°50.726 244.1 3.2 234 -999
2009-06-11 08:16:40 51°13.058 2°50.714 244.1 3.2 234 -999
2009-06-11 08:16:50 51°13.053 2°50.699 244.1 3.2 234 -999
2009-06-11 08:17:00 51°13.048 2°50.686 244.8 3.39 239 -999
2009-06-11 08:17:10 51°13.042 2°50.674 244.8 3.39 239 -999
2009-06-11 08:17:20 51°13.036 2°50.66 244.8 3.39 239 -999
2009-06-11 08:17:30 51°13.032 2°50.648 244.8 3.39 239 -999
2009-06-11 08:17:40 51°13.025 2°50.635 244.8 3.39 239 -999
2009-06-11 08:17:50 51°13.02 2°50.624 244.8 3.39 239 -999
2009-06-11 08:18:00 51°13.014 2°50.61 242.1 3.5 233 -999
2009-06-11 08:18:10 51°13.009 2°50.598 242.1 3.5 233 -999
2009-06-11 08:18:20 51°13.003 2°50.586 242.1 3.5 233 -999
2009-06-11 08:18:30 51°12.998 2°50.573 242.1 3.5 233 -999
2009-06-11 08:18:40 51°12.992 2°50.56 242.1 3.5 233 -999
2009-06-11 08:18:50 51°12.987 2°50.548 242.1 3.5 233 -999
2009-06-11 08:19:00 51°12.981 2°50.535 243.4 3.5 236 -999
2009-06-11 08:19:10 51°12.976 2°50.522 243.4 3.5 236 -999
2009-06-11 08:19:20 51°12.97 2°50.509 243.4 3.5 236 -999
2009-06-11 08:19:30 51°12.965 2°50.496 243.4 3.5 236 -999
2009-06-11 08:19:40 51°12.96 2°50.483 243.4 3.5 236 -999
2009-06-11 08:19:50 51°12.955 2°50.469 243.4 3.5 236 -999
2009-06-11 08:20:00 51°12.95 2°50.456 244.1 3.5 237 -999
2009-06-11 08:20:10 51°12.944 2°50.445 244.1 3.5 237 -999
2009-06-11 08:20:20 51°12.939 2°50.433 244.1 3.5 237 -999
2009-06-11 08:20:30 51°12.933 2°50.42 244.1 3.5 237 -999
2009-06-11 08:20:40 51°12.927 2°50.407 244.1 3.5 237 -999
2009-06-11 08:20:50 51°12.921 2°50.395 244.1 3.5 237 -999
2009-06-11 08:21:00 51°12.916 2°50.383 242.6 3.5 232 -999
2009-06-11 08:21:10 51°12.91 2°50.371 242.6 3.5 232 -999
2009-06-11 08:21:20 51°12.904 2°50.359 242.6 3.5 232 -999
2009-06-11 08:21:30 51°12.898 2°50.346 242.6 3.5 232 -999
2009-06-11 08:21:40 51°12.893 2°50.334 242.6 3.5 232 -999
2009-06-11 08:21:50 51°12.887 2°50.322 242.6 3.5 232 -999
2009-06-11 08:22:00 51°12.882 2°50.31 243.5 3.39 235 -999
2009-06-11 08:22:10 51°12.877 2°50.298 243.5 3.39 235 -999
2009-06-11 08:22:20 51°12.871 2°50.286 243.5 3.39 235 -999
2009-06-11 08:22:30 51°12.866 2°50.274 243.5 3.39 235 -999
2009-06-11 08:22:40 51°12.861 2°50.262 243.5 3.39 235 -999
2009-06-11 08:22:50 51°12.855 2°50.25 243.5 3.39 235 -999
2009-06-11 08:23:00 51°12.85 2°50.238 243.6 3.39 233 -999
2009-06-11 08:23:10 51°12.844 2°50.226 243.6 3.39 233 -999
2009-06-11 08:23:20 51°12.839 2°50.214 243.6 3.39 233 -999
2009-06-11 08:23:30 51°12.834 2°50.202 243.6 3.39 233 -999
2009-06-11 08:23:40 51°12.828 2°50.19 243.6 3.39 233 -999
2009-06-11 08:23:50 51°12.823 2°50.178 243.6 3.39 233 -999
2009-06-11 08:24:00 51°12.817 2°50.167 244 3.39 231 -999
2009-06-11 08:24:10 51°12.811 2°50.153 244 3.39 231 -999
2009-06-11 08:24:20 51°12.806 2°50.141 244 3.39 231 -999
2009-06-11 08:24:30 51°12.8 2°50.129 244 3.39 231 -999
2009-06-11 08:24:40 51°12.795 2°50.117 244 3.39 231 -999
2009-06-11 08:24:50 51°12.789 2°50.105 244 3.39 231 -999
2009-06-11 08:25:00 51°12.784 2°50.093 244 3.39 233 -999
2009-06-11 08:25:10 51°12.778 2°50.08 244 3.39 233 -999
2009-06-11 08:25:20 51°12.773 2°50.068 244 3.39 233 -999
2009-06-11 08:25:30 51°12.768 2°50.056 244 3.39 233 -999
2009-06-11 08:25:40 51°12.762 2°50.044 244 3.39 233 -999
2009-06-11 08:25:50 51°12.757 2°50.031 244 3.39 233 -999
2009-06-11 08:26:00 51°12.752 2°50.019 244.6 3.39 236 -999
2009-06-11 08:26:10 51°12.747 2°50.007 244.6 3.39 236 -999
2009-06-11 08:26:20 51°12.741 2°49.994 244.6 3.39 236 -999
2009-06-11 08:26:30 51°12.736 2°49.982 244.6 3.39 236 -999
2009-06-11 08:26:40 51°12.731 2°49.97 244.6 3.39 236 -999
2009-06-11 08:26:50 51°12.726 2°49.957 244.6 3.39 236 -999
2009-06-11 08:27:00 51°12.721 2°49.944 246.4 3.39 236 -999
2009-06-11 08:27:10 51°12.717 2°49.932 246.4 3.39 236 -999
2009-06-11 08:27:20 51°12.712 2°49.92 246.4 3.39 236 -999
2009-06-11 08:27:30 51°12.707 2°49.907 246.4 3.39 236 -999
2009-06-11 08:27:40 51°12.702 2°49.895 246.4 3.39 236 -999
2009-06-11 08:27:50 51°12.697 2°49.882 246.4 3.39 236 -999
2009-06-11 08:28:00 51°12.692 2°49.87 245.4 3.29 238 -999
2009-06-11 08:28:10 51°12.687 2°49.857 245.4 3.29 238 -999
2009-06-11 08:28:20 51°12.682 2°49.845 245.4 3.29 238 -999
2009-06-11 08:28:30 51°12.677 2°49.832 245.4 3.29 238 -999
2009-06-11 08:28:40 51°12.672 2°49.819 245.4 3.29 238 -999
2009-06-11 08:28:50 51°12.667 2°49.806 245.4 3.29 238 -999
2009-06-11 08:29:00 51°12.661 2°49.794 244 3.5 236 -999
2009-06-11 08:29:10 51°12.656 2°49.78 244 3.5 236 -999
2009-06-11 08:29:20 51°12.651 2°49.767 244 3.5 236 -999
2009-06-11 08:29:30 51°12.645 2°49.754 244 3.5 236 -999
2009-06-11 08:29:40 51°12.64 2°49.741 244 3.5 236 -999
2009-06-11 08:29:50 51°12.634 2°49.728 244 3.5 236 -999
2009-06-11 08:30:00 51°12.629 2°49.715 244.1 3.6 236 -999
2009-06-11 08:30:10 51°12.623 2°49.701 244.1 3.6 236 -999
2009-06-11 08:30:20 51°12.617 2°49.689 244.1 3.6 236 -999
2009-06-11 08:30:30 51°12.612 2°49.676 244.1 3.6 236 -999
2009-06-11 08:30:40 51°12.606 2°49.663 244.1 3.6 236 -999
2009-06-11 08:30:50 51°12.601 2°49.65 244.1 3.6 236 -999
2009-06-11 08:31:00 51°12.595 2°49.637 244 3.6 236 -999
2009-06-11 08:31:10 51°12.59 2°49.624 244 3.6 236 -999
2009-06-11 08:31:20 51°12.584 2°49.611 244 3.6 236 -999
2009-06-11 08:31:30 51°12.58 2°49.598 244 3.6 236 -999
2009-06-11 08:31:40 51°12.575 2°49.585 244 3.6 236 -999
2009-06-11 08:31:50 51°12.569 2°49.572 244 3.6 236 -999
2009-06-11 08:32:00 51°12.564 2°49.559 245.5 3.39 238 -999
2009-06-11 08:32:10 51°12.559 2°49.545 245.5 3.39 238 -999
2009-06-11 08:32:20 51°12.553 2°49.533 245.5 3.39 238 -999
2009-06-11 08:32:30 51°12.548 2°49.521 245.5 3.39 238 -999
2009-06-11 08:32:40 51°12.543 2°49.509 245.5 3.39 238 -999
2009-06-11 08:32:50 51°12.538 2°49.497 245.5 3.39 238 -999
2009-06-11 08:33:00 51°12.533 2°49.485 244.1 3.29 234 -999
2009-06-11 08:33:10 51°12.527 2°49.473 244.1 3.29 234 -999
2009-06-11 08:33:20 51°12.522 2°49.462 244.1 3.29 234 -999
2009-06-11 08:33:30 51°12.517 2°49.451 244.1 3.29 234 -999
2009-06-11 08:33:40 51°12.512 2°49.44 244.1 3.29 234 -999
2009-06-11 08:33:50 51°12.506 2°49.429 244.1 3.29 234 -999
2009-06-11 08:34:00 51°12.501 2°49.419 243 3.1 229 -999
2009-06-11 08:34:10 51°12.496 2°49.409 243 3.1 229 -999
2009-06-11 08:34:20 51°12.491 2°49.399 243 3.1 229 -999
2009-06-11 08:34:30 51°12.486 2°49.388 243 3.1 229 -999
2009-06-11 08:34:40 51°12.48 2°49.378 243 3.1 229 -999
2009-06-11 08:34:50 51°12.475 2°49.368 243 3.1 229 -999
2009-06-11 08:35:00 51°12.469 2°49.357 242.1 3 231 -999
2009-06-11 08:35:10 51°12.464 2°49.347 242.1 3 231 -999
2009-06-11 08:35:20 51°12.459 2°49.336 242.1 3 231 -999
2009-06-11 08:35:30 51°12.454 2°49.325 242.1 3 231 -999
2009-06-11 08:35:40 51°12.449 2°49.314 242.1 3 231 -999
2009-06-11 08:35:50 51°12.444 2°49.304 242.1 3 231 -999
2009-06-11 08:36:00 51°12.439 2°49.293 247.9 3 234 -999
2009-06-11 08:36:10 51°12.435 2°49.282 247.9 3 234 -999
2009-06-11 08:36:20 51°12.43 2°49.272 247.9 3 234 -999
2009-06-11 08:36:30 51°12.426 2°49.262 247.9 3 234 -999
2009-06-11 08:36:40 51°12.42 2°49.251 247.9 3 234 -999
2009-06-11 08:36:50 51°12.415 2°49.241 247.9 3 234 -999
2009-06-11 08:37:00 51°12.41 2°49.231 243.5 3 227 -999
2009-06-11 08:37:10 51°12.404 2°49.221 243.5 3 227 -999
2009-06-11 08:37:20 51°12.398 2°49.211 243.5 3 227 -999
2009-06-11 08:37:30 51°12.392 2°49.201 243.5 3 227 -999
2009-06-11 08:37:40 51°12.386 2°49.192 243.5 3 227 -999
2009-06-11 08:37:50 51°12.379 2°49.183 243.5 3 227 -999
2009-06-11 08:38:00 51°12.372 2°49.175 230.1 3.2 217 -999
2009-06-11 08:38:10 51°12.366 2°49.166 230.1 3.2 217 -999
2009-06-11 08:38:20 51°12.358 2°49.158 230.1 3.2 217 -999
2009-06-11 08:38:30 51°12.351 2°49.15 230.1 3.2 217 -999
2009-06-11 08:38:40 51°12.343 2°49.143 230.1 3.2 217 -999
2009-06-11 08:38:50 51°12.336 2°49.135 230.1 3.2 217 -999
2009-06-11 08:39:00 51°12.328 2°49.127 218.5 3.29 211 -999
2009-06-11 08:39:10 51°12.319 2°49.119 218.5 3.29 211 -999
2009-06-11 08:39:20 51°12.311 2°49.111 218.5 3.29 211 -999
2009-06-11 08:39:30 51°12.303 2°49.103 218.5 3.29 211 -999
2009-06-11 08:39:40 51°12.295 2°49.096 218.5 3.29 211 -999
2009-06-11 08:39:50 51°12.287 2°49.088 218.5 3.29 211 -999
2009-06-11 08:40:00 51°12.279 2°49.08 218.5 3.29 212 -999
2009-06-11 08:40:10 51°12.272 2°49.072 218.5 3.29 212 -999
2009-06-11 08:40:20 51°12.264 2°49.063 218.5 3.29 212 -999
2009-06-11 08:40:30 51°12.257 2°49.055 218.5 3.29 212 -999
2009-06-11 08:40:40 51°12.25 2°49.047 218.5 3.29 212 -999
2009-06-11 08:40:50 51°12.243 2°49.038 218.5 3.29 212 -999
2009-06-11 08:41:00 51°12.236 2°49.029 228.8 3.1 221 -999
2009-06-11 08:41:10 51°12.229 2°49.02 228.8 3.1 221 -999
2009-06-11 08:41:20 51°12.222 2°49.012 228.8 3.1 221 -999
2009-06-11 08:41:30 51°12.216 2°49.003 228.8 3.1 221 -999
2009-06-11 08:41:40 51°12.21 2°48.994 228.8 3.1 221 -999
2009-06-11 08:41:50 51°12.204 2°48.985 228.8 3.1 221 -999
2009-06-11 08:42:00 51°12.199 2°48.976 238.5 2.79 226 -999
2009-06-11 08:42:10 51°12.194 2°48.969 238.5 2.79 226 -999
2009-06-11 08:42:20 51°12.189 2°48.96 238.5 2.79 226 -999
2009-06-11 08:42:30 51°12.184 2°48.952 238.5 2.79 226 -999
2009-06-11 08:42:40 51°12.179 2°48.944 238.5 2.79 226 -999
2009-06-11 08:42:50 51°12.174 2°48.935 238.5 2.79 226 -999
2009-06-11 08:43:00 51°12.17 2°48.927 246.9 2.39 226 -999
2009-06-11 08:43:10 51°12.165 2°48.92 246.9 2.39 226 -999
2009-06-11 08:43:20 51°12.161 2°48.913 246.9 2.39 226 -999
2009-06-11 08:43:30 51°12.157 2°48.905 246.9 2.39 226 -999
2009-06-11 08:43:40 51°12.153 2°48.898 246.9 2.39 226 -999
2009-06-11 08:43:50 51°12.149 2°48.89 246.9 2.39 226 -999
2009-06-11 08:44:00 51°12.146 2°48.882 253.5 2.2 235 -999
2009-06-11 08:44:10 51°12.142 2°48.874 253.5 2.2 235 -999
2009-06-11 08:44:20 51°12.139 2°48.864 253.5 2.2 235 -999
2009-06-11 08:44:30 51°12.136 2°48.853 253.5 2.2 235 -999
2009-06-11 08:44:40 51°12.135 2°48.841 253.5 2.2 235 -999
2009-06-11 08:44:50 51°12.135 2°48.829 253.5 2.2 235 -999
2009-06-11 08:45:00 51°12.136 2°48.817 292.8 2.89 284 -999
2009-06-11 08:45:10 51°12.139 2°48.806 292.8 2.89 284 -999
2009-06-11 08:45:20 51°12.144 2°48.796 292.8 2.89 284 -999
2009-06-11 08:45:30 51°12.15 2°48.789 292.8 2.89 284 -999
2009-06-11 08:45:40 51°12.158 2°48.785 292.8 2.89 284 -999
2009-06-11 08:45:50 51°12.167 2°48.786 292.8 2.89 284 -999
2009-06-11 08:46:00 51°12.176 2°48.791 17.8 3.6 23 -999
2009-06-11 08:46:10 51°12.187 2°48.802 17.8 3.6 23 -999
2009-06-11 08:46:20 51°12.197 2°48.818 17.8 3.6 23 -999
2009-06-11 08:46:30 51°12.207 2°48.838 17.8 3.6 23 -999
2009-06-11 08:46:40 51°12.219 2°48.861 17.8 3.6 23 -999
2009-06-11 08:46:50 51°12.232 2°48.888 17.8 3.6 23 -999
2009-06-11 08:47:00 51°12.245 2°48.918 53.7 8.3 57 -999
2009-06-11 08:47:10 51°12.258 2°48.949 53.7 8.3 57 -999
2009-06-11 08:47:20 51°12.272 2°48.984 53.7 8.3 57 -999
2009-06-11 08:47:30 51°12.286 2°49.02 53.7 8.3 57 -999
2009-06-11 08:47:40 51°12.301 2°49.057 53.7 8.3 57 -999
2009-06-11 08:47:50 51°12.316 2°49.095 53.7 8.3 57 -999
2009-06-11 08:48:00 51°12.331 2°49.133 59.6 10.3 58 -999
2009-06-11 08:48:10 51°12.345 2°49.168 59.6 10.3 58 -999
2009-06-11 08:48:20 51°12.36 2°49.207 59.6 10.3 58 -999
2009-06-11 08:48:30 51°12.375 2°49.246 59.6 10.3 58 -999
2009-06-11 08:48:40 51°12.39 2°49.284 59.6 10.3 58 -999
2009-06-11 08:48:50 51°12.406 2°49.323 59.6 10.3 58 -999
2009-06-11 08:49:00 51°12.421 2°49.362 58.2 10.5 57 -999
2009-06-11 08:49:10 51°12.436 2°49.401 58.2 10.5 57 -999
2009-06-11 08:49:20 51°12.452 2°49.44 58.2 10.5 57 -999
2009-06-11 08:49:30 51°12.467 2°49.479 58.2 10.5 57 -999
2009-06-11 08:49:40 51°12.483 2°49.518 58.2 10.5 57 -999
2009-06-11 08:49:50 51°12.498 2°49.557 58.2 10.5 57 -999
2009-06-11 08:50:00 51°12.514 2°49.595 58.2 10.4 56 -999
2009-06-11 08:50:10 51°12.53 2°49.634 58.2 10.4 56 -999
2009-06-11 08:50:20 51°12.545 2°49.673 58.2 10.4 56 -999
2009-06-11 08:50:30 51°12.561 2°49.711 58.2 10.4 56 -999
2009-06-11 08:50:40 51°12.576 2°49.749 58.2 10.4 56 -999
2009-06-11 08:50:50 51°12.591 2°49.788 58.2 10.4 56 -999
2009-06-11 08:51:00 51°12.606 2°49.826 58 10.19 59 -999
2009-06-11 08:51:10 51°12.621 2°49.864 58 10.19 59 -999
2009-06-11 08:51:20 51°12.636 2°49.902 58 10.19 59 -999
2009-06-11 08:51:30 51°12.651 2°49.941 58 10.19 59 -999
2009-06-11 08:51:40 51°12.667 2°49.979 58 10.19 59 -999
2009-06-11 08:51:50 51°12.682 2°50.018 58 10.19 59 -999
2009-06-11 08:52:00 51°12.696 2°50.057 58.2 10.3 58 -999
2009-06-11 08:52:10 51°12.712 2°50.099 58.2 10.3 58 -999
2009-06-11 08:52:20 51°12.728 2°50.137 58.2 10.3 58 -999
2009-06-11 08:52:30 51°12.743 2°50.176 58.2 10.3 58 -999
2009-06-11 08:52:40 51°12.757 2°50.215 58.2 10.3 58 -999
2009-06-11 08:52:50 51°12.773 2°50.252 58.2 10.3 58 -999
2009-06-11 08:53:00 51°12.79 2°50.289 57.2 10.19 53 -999
2009-06-11 08:53:10 51°12.807 2°50.324 57.2 10.19 53 -999
2009-06-11 08:53:20 51°12.824 2°50.36 57.2 10.19 53 -999
2009-06-11 08:53:30 51°12.842 2°50.395 57.2 10.19 53 -999
2009-06-11 08:53:40 51°12.86 2°50.43 57.2 10.19 53 -999
2009-06-11 08:53:50 51°12.877 2°50.465 57.2 10.19 53 -999
2009-06-11 08:54:00 51°12.896 2°50.499 51.7 10.3 49 -999
2009-06-11 08:54:10 51°12.913 2°50.536 51.7 10.3 49 -999
2009-06-11 08:54:20 51°12.931 2°50.571 51.7 10.3 49 -999
2009-06-11 08:54:30 51°12.948 2°50.608 51.7 10.3 49 -999
2009-06-11 08:54:40 51°12.966 2°50.644 51.7 10.3 49 -999
2009-06-11 08:54:50 51°12.984 2°50.679 51.7 10.3 49 -999
2009-06-11 08:55:00 51°13.001 2°50.71 51 10.3 54 -999
2009-06-11 08:55:10 51°13.019 2°50.745 51 10.3 54 -999
2009-06-11 08:55:20 51°13.037 2°50.781 51 10.3 54 -999
2009-06-11 08:55:30 51°13.055 2°50.816 51 10.3 54 -999
2009-06-11 08:55:40 51°13.073 2°50.852 51 10.3 54 -999
2009-06-11 08:55:50 51°13.09 2°50.887 51 10.3 54 -999
2009-06-11 08:56:00 51°13.108 2°50.922 53 10.19 48 -999
2009-06-11 08:56:10 51°13.126 2°50.958 53 10.19 48 -999
2009-06-11 08:56:20 51°13.144 2°50.992 53 10.19 48 -999
2009-06-11 08:56:30 51°13.161 2°51.028 53 10.19 48 -999
2009-06-11 08:56:40 51°13.179 2°51.063 53 10.19 48 -999
2009-06-11 08:56:50 51°13.197 2°51.099 53 10.19 48 -999
2009-06-11 08:57:00 51°13.214 2°51.135 52.2 10.3 52 -999
2009-06-11 08:57:10 51°13.232 2°51.17 52.2 10.3 52 -999
2009-06-11 08:57:20 51°13.25 2°51.205 52.2 10.3 52 -999
2009-06-11 08:57:30 51°13.267 2°51.241 52.2 10.3 52 -999
2009-06-11 08:57:40 51°13.284 2°51.277 52.2 10.3 52 -999
2009-06-11 08:57:50 51°13.302 2°51.311 52.2 10.3 52 -999
2009-06-11 08:58:00 51°13.318 2°51.346 52.6 10 54 -999
2009-06-11 08:58:10 51°13.334 2°51.376 52.6 10 54 -999
2009-06-11 08:58:20 51°13.347 2°51.4 52.6 10 54 -999
2009-06-11 08:58:30 51°13.36 2°51.415 52.6 10 54 -999
2009-06-11 08:58:40 51°13.372 2°51.422 52.6 10 54 -999
2009-06-11 08:58:50 51°13.383 2°51.424 52.6 10 54 -999
2009-06-11 08:59:00 51°13.392 2°51.423 9.8 3.29 352 -999
2009-06-11 08:59:10 51°13.4 2°51.419 9.8 3.29 352 -999
2009-06-11 08:59:20 51°13.407 2°51.411 9.8 3.29 352 -999
2009-06-11 08:59:30 51°13.413 2°51.404 9.8 3.29 352 -999
2009-06-11 08:59:40 51°13.417 2°51.396 9.8 3.29 352 -999
2009-06-11 08:59:50 51°13.422 2°51.387 9.8 3.29 352 -999
2009-06-11 09:00:00 51°13.426 2°51.379 327.3 2.6 310 -999
2009-06-11 09:00:10 51°13.43 2°51.371 327.3 2.6 310 -999
2009-06-11 09:00:20 51°13.434 2°51.363 327.3 2.6 310 -999
2009-06-11 09:00:30 51°13.437 2°51.358 327.3 2.6 310 -999
2009-06-11 09:00:40 51°13.439 2°51.353 327.3 2.6 310 -999
2009-06-11 09:00:50 51°13.44 2°51.349 327.3 2.6 310 -999
2009-06-11 09:01:00 51°13.44 2°51.346 331.1 0.69 278 -999
2009-06-11 09:01:10 51°13.44 2°51.343 331.1 0.69 278 -999
2009-06-11 09:01:20 51°13.44 2°51.341 331.1 0.69 278 -999
2009-06-11 09:01:30 51°13.44 2°51.338 331.1 0.69 278 -999
2009-06-11 09:01:40 51°13.44 2°51.336 331.1 0.69 278 -999
2009-06-11 09:01:50 51°13.439 2°51.335 331.1 0.69 278 -999
2009-06-11 09:02:00 51°13.439 2°51.334 337.1 0.29 226 -999
2009-06-11 09:02:10 51°13.438 2°51.333 337.1 0.29 226 -999
2009-06-11 09:02:20 51°13.437 2°51.333 337.1 0.29 226 -999
2009-06-11 09:02:30 51°13.435 2°51.332 337.1 0.29 226 -999
2009-06-11 09:02:40 51°13.434 2°51.332 337.1 0.29 226 -999
2009-06-11 09:02:50 51°13.432 2°51.332 337.1 0.29 226 -999
2009-06-11 09:03:00 51°13.429 2°51.332 355 0.8 174 -999
2009-06-11 09:03:10 51°13.427 2°51.332 355 0.8 174 -999
2009-06-11 09:03:20 51°13.425 2°51.332 355 0.8 174 -999
2009-06-11 09:03:30 51°13.423 2°51.332 355 0.8 174 -999
2009-06-11 09:03:40 51°13.421 2°51.332 355 0.8 174 -999
2009-06-11 09:03:50 51°13.419 2°51.331 355 0.8 174 -999
2009-06-11 09:04:00 51°13.416 2°51.331 11.5 0.9 182 -999
2009-06-11 09:04:10 51°13.414 2°51.331 11.5 0.9 182 -999
2009-06-11 09:04:20 51°13.412 2°51.33 11.5 0.9 182 -999
2009-06-11 09:04:30 51°13.409 2°51.33 11.5 0.9 182 -999
2009-06-11 09:04:40 51°13.406 2°51.329 11.5 0.9 182 -999
2009-06-11 09:04:50 51°13.404 2°51.329 11.5 0.9 182 -999
2009-06-11 09:05:00 51°13.401 2°51.328 18.6 0.9 184 -999
2009-06-11 09:05:10 51°13.399 2°51.328 18.6 0.9 184 -999
2009-06-11 09:05:20 51°13.396 2°51.327 18.6 0.9 184 -999
2009-06-11 09:05:30 51°13.394 2°51.327 18.6 0.9 184 -999
2009-06-11 09:05:40 51°13.391 2°51.327 18.6 0.9 184 -999
2009-06-11 09:05:50 51°13.389 2°51.326 18.6 0.9 184 -999
2009-06-11 09:06:00 51°13.386 2°51.326 19.8 0.9 190 -999
2009-06-11 09:06:10 51°13.384 2°51.325 19.8 0.9 190 -999
2009-06-11 09:06:20 51°13.382 2°51.325 19.8 0.9 190 -999
2009-06-11 09:06:30 51°13.379 2°51.324 19.8 0.9 190 -999
2009-06-11 09:06:40 51°13.376 2°51.323 19.8 0.9 190 -999
2009-06-11 09:06:50 51°13.374 2°51.322 19.8 0.9 190 -999
2009-06-11 09:07:00 51°13.371 2°51.321 18.6 1 197 -999
2009-06-11 09:07:10 51°13.369 2°51.32 18.6 1 197 -999
2009-06-11 09:07:20 51°13.366 2°51.319 18.6 1 197 -999
2009-06-11 09:07:30 51°13.364 2°51.318 18.6 1 197 -999
2009-06-11 09:07:40 51°13.361 2°51.318 18.6 1 197 -999
2009-06-11 09:07:50 51°13.359 2°51.318 18.6 1 197 -999
2009-06-11 09:08:00 51°13.356 2°51.317 16.8 0.9 190 -999
2009-06-11 09:08:10 51°13.354 2°51.316 16.8 0.9 190 -999
2009-06-11 09:08:20 51°13.351 2°51.316 16.8 0.9 190 -999
2009-06-11 09:08:30 51°13.348 2°51.315 16.8 0.9 190 -999
2009-06-11 09:08:40 51°13.346 2°51.315 16.8 0.9 190 -999
2009-06-11 09:08:50 51°13.343 2°51.314 16.8 0.9 190 -999
2009-06-11 09:09:00 51°13.341 2°51.313 16.3 0.9 187 -999
2009-06-11 09:09:10 51°13.338 2°51.313 16.3 0.9 187 -999
2009-06-11 09:09:20 51°13.336 2°51.312 16.3 0.9 187 -999
2009-06-11 09:09:30 51°13.333 2°51.311 16.3 0.9 187 -999
2009-06-11 09:09:40 51°13.331 2°51.31 16.3 0.9 187 -999
2009-06-11 09:09:50 51°13.329 2°51.31 16.3 0.9 187 -999
2009-06-11 09:10:00 51°13.328 2°51.31 15.5 0.1 71 -999
2009-06-11 09:10:10 51°13.33 2°51.31 15.5 0.1 71 -999
2009-06-11 09:10:20 51°13.334 2°51.312 15.5 0.1 71 -999
2009-06-11 09:10:30 51°13.339 2°51.314 15.5 0.1 71 -999
2009-06-11 09:10:40 51°13.347 2°51.319 15.5 0.1 71 -999
2009-06-11 09:10:50 51°13.355 2°51.329 15.5 0.1 71 -999
2009-06-11 09:11:00 51°13.364 2°51.348 44 5.09 59 -999
2009-06-11 09:11:10 51°13.37 2°51.37 44 5.09 59 -999
2009-06-11 09:11:20 51°13.379 2°51.395 44 5.09 59 -999
2009-06-11 09:11:30 51°13.388 2°51.423 44 5.09 59 -999
2009-06-11 09:11:40 51°13.398 2°51.455 44 5.09 59 -999
2009-06-11 09:11:50 51°13.409 2°51.487 44 5.09 59 -999
2009-06-11 09:12:00 51°13.421 2°51.521 61.1 8.9 62 -999
2009-06-11 09:12:10 51°13.433 2°51.555 61.1 8.9 62 -999
2009-06-11 09:12:20 51°13.446 2°51.59 61.1 8.9 62 -999
2009-06-11 09:12:30 51°13.458 2°51.626 61.1 8.9 62 -999
2009-06-11 09:12:40 51°13.47 2°51.663 61.1 8.9 62 -999
2009-06-11 09:12:50 51°13.484 2°51.701 61.1 8.9 62 -999
2009-06-11 09:13:00 51°13.498 2°51.739 62 10 55 -999
2009-06-11 09:13:10 51°13.509 2°51.775 62 10 55 -999
2009-06-11 09:13:20 51°13.524 2°51.813 62 10 55 -999
2009-06-11 09:13:30 51°13.538 2°51.853 62 10 55 -999
2009-06-11 09:13:40 51°13.552 2°51.893 62 10 55 -999
2009-06-11 09:13:50 51°13.566 2°51.933 62 10 55 -999
2009-06-11 09:14:00 51°13.58 2°51.974 61.6 10.4 59 -999
2009-06-11 09:14:10 51°13.594 2°52.014 61.6 10.4 59 -999
2009-06-11 09:14:20 51°13.607 2°52.055 61.6 10.4 59 -999
2009-06-11 09:14:30 51°13.621 2°52.095 61.6 10.4 59 -999
2009-06-11 09:14:40 51°13.634 2°52.136 61.6 10.4 59 -999
2009-06-11 09:14:50 51°13.647 2°52.177 61.6 10.4 59 -999
2009-06-11 09:15:00 51°13.661 2°52.217 62.7 10.3 60 -999
2009-06-11 09:15:10 51°13.675 2°52.258 62.7 10.3 60 -999
2009-06-11 09:15:20 51°13.688 2°52.299 62.7 10.3 60 -999
2009-06-11 09:15:30 51°13.701 2°52.339 62.7 10.3 60 -999
2009-06-11 09:15:40 51°13.715 2°52.378 62.7 10.3 60 -999
2009-06-11 09:15:50 51°13.728 2°52.418 62.7 10.3 60 -999
2009-06-11 09:16:00 51°13.742 2°52.458 61.2 10.4 65 -999
2009-06-11 09:16:10 51°13.756 2°52.498 61.2 10.4 65 -999
2009-06-11 09:16:20 51°13.769 2°52.538 61.2 10.4 65 -999
2009-06-11 09:16:30 51°13.784 2°52.577 61.2 10.4 65 -999
2009-06-11 09:16:40 51°13.799 2°52.615 61.2 10.4 65 -999
2009-06-11 09:16:50 51°13.814 2°52.654 61.2 10.4 65 -999
2009-06-11 09:17:00 51°13.83 2°52.692 56 10.4 54 -999
2009-06-11 09:17:10 51°13.847 2°52.73 56 10.4 54 -999
2009-06-11 09:17:20 51°13.865 2°52.771 56 10.4 54 -999
2009-06-11 09:17:30 51°13.88 2°52.805 56 10.4 54 -999
2009-06-11 09:17:40 51°13.899 2°52.846 56 10.4 54 -999
2009-06-11 09:17:50 51°13.915 2°52.879 56 10.4 54 -999
2009-06-11 09:18:00 51°13.933 2°52.92 55.2 10.3 56 -999
2009-06-11 09:18:10 51°13.95 2°52.956 55.2 10.3 56 -999
2009-06-11 09:18:20 51°13.967 2°52.993 55.2 10.3 56 -999
2009-06-11 09:18:30 51°13.985 2°53.028 55.2 10.3 56 -999
2009-06-11 09:18:40 51°14.002 2°53.065 55.2 10.3 56 -999
2009-06-11 09:18:50 51°14.019 2°53.102 55.2 10.3 56 -999
2009-06-11 09:19:00 51°14.036 2°53.138 53.7 10.3 51 -999
2009-06-11 09:19:10 51°14.052 2°53.175 53.7 10.3 51 -999
2009-06-11 09:19:20 51°14.069 2°53.212 53.7 10.3 51 -999
2009-06-11 09:19:30 51°14.086 2°53.249 53.7 10.3 51 -999
2009-06-11 09:19:40 51°14.103 2°53.285 53.7 10.3 51 -999
2009-06-11 09:19:50 51°14.119 2°53.323 53.7 10.3 51 -999
2009-06-11 09:20:00 51°14.136 2°53.36 55.1 10.4 55 -999
2009-06-11 09:20:10 51°14.152 2°53.399 55.1 10.4 55 -999
2009-06-11 09:20:20 51°14.168 2°53.437 55.1 10.4 55 -999
2009-06-11 09:20:30 51°14.183 2°53.47 55.1 10.4 55 -999
2009-06-11 09:20:40 51°14.199 2°53.507 55.1 10.4 55 -999
2009-06-11 09:20:50 51°14.216 2°53.544 55.1 10.4 55 -999
2009-06-11 09:21:00 51°14.232 2°53.582 55.8 10.5 56 -999
2009-06-11 09:21:10 51°14.249 2°53.619 55.8 10.5 56 -999
2009-06-11 09:21:20 51°14.265 2°53.656 55.8 10.5 56 -999
2009-06-11 09:21:30 51°14.283 2°53.692 55.8 10.5 56 -999
2009-06-11 09:21:40 51°14.299 2°53.729 55.8 10.5 56 -999
2009-06-11 09:21:50 51°14.317 2°53.765 55.8 10.5 56 -999
2009-06-11 09:22:00 51°14.334 2°53.802 55.2 10.4 49 -999
2009-06-11 09:22:10 51°14.352 2°53.837 55.2 10.4 49 -999
2009-06-11 09:22:20 51°14.374 2°53.873 55.2 10.4 49 -999
2009-06-11 09:22:30 51°14.392 2°53.901 55.2 10.4 49 -999
2009-06-11 09:22:40 51°14.416 2°53.933 55.2 10.4 49 -999
2009-06-11 09:22:50 51°14.438 2°53.959 55.2 10.4 49 -999
2009-06-11 09:23:00 51°14.462 2°53.981 37.1 9.9 32 -999
2009-06-11 09:23:10 51°14.487 2°54.001 37.1 9.9 32 -999
2009-06-11 09:23:20 51°14.513 2°54.017 37.1 9.9 32 -999
2009-06-11 09:23:30 51°14.539 2°54.03 37.1 9.9 32 -999
2009-06-11 09:23:40 51°14.567 2°54.039 37.1 9.9 32 -999
2009-06-11 09:23:50 51°14.595 2°54.041 37.1 9.9 32 -999
2009-06-11 09:24:00 51°14.623 2°54.04 7.2 10.3 357 -999
2009-06-11 09:24:10 51°14.652 2°54.036 7.2 10.3 357 -999
2009-06-11 09:24:20 51°14.681 2°54.03 7.2 10.3 357 -999
2009-06-11 09:24:30 51°14.709 2°54.023 7.2 10.3 357 -999
2009-06-11 09:24:40 51°14.738 2°54.014 7.2 10.3 357 -999
2009-06-11 09:24:50 51°14.766 2°54.003 7.2 10.3 357 -999
2009-06-11 09:25:00 51°14.794 2°53.988 349.6 10.5 343 -999
2009-06-11 09:25:10 51°14.822 2°53.973 349.6 10.5 343 -999
2009-06-11 09:25:20 51°14.849 2°53.955 349.6 10.5 343 -999
2009-06-11 09:25:30 51°14.873 2°53.941 349.6 10.5 343 -999
2009-06-11 09:25:40 51°14.901 2°53.924 349.6 10.5 343 -999
2009-06-11 09:25:50 51°14.928 2°53.907 349.6 10.5 343 -999
2009-06-11 09:26:00 51°14.955 2°53.89 345.6 10.5 338 -999
2009-06-11 09:26:10 51°14.983 2°53.874 345.6 10.5 338 -999
2009-06-11 09:26:20 51°15.01 2°53.856 345.6 10.5 338 -999
2009-06-11 09:26:30 51°15.038 2°53.84 345.6 10.5 338 -999
2009-06-11 09:26:40 51°15.066 2°53.825 345.6 10.5 338 -999
2009-06-11 09:26:50 51°15.093 2°53.81 345.6 10.5 338 -999
2009-06-11 09:27:00 51°15.121 2°53.795 347.8 10.59 341 -999
2009-06-11 09:27:10 51°15.149 2°53.781 347.8 10.59 341 -999
2009-06-11 09:27:20 51°15.177 2°53.767 347.8 10.59 341 -999
2009-06-11 09:27:30 51°15.204 2°53.753 347.8 10.59 341 -999
2009-06-11 09:27:40 51°15.232 2°53.739 347.8 10.59 341 -999
2009-06-11 09:27:50 51°15.259 2°53.724 347.8 10.59 341 -999
2009-06-11 09:28:00 51°15.287 2°53.71 348.6 10.4 343 -999
2009-06-11 09:28:10 51°15.315 2°53.696 348.6 10.4 343 -999
2009-06-11 09:28:20 51°15.342 2°53.682 348.6 10.4 343 -999
2009-06-11 09:28:30 51°15.369 2°53.668 348.6 10.4 343 -999
2009-06-11 09:28:40 51°15.397 2°53.653 348.6 10.4 343 -999
2009-06-11 09:28:50 51°15.424 2°53.638 348.6 10.4 343 -999
2009-06-11 09:29:00 51°15.451 2°53.624 347.1 10.3 342 -999
2009-06-11 09:29:10 51°15.478 2°53.609 347.1 10.3 342 -999
2009-06-11 09:29:20 51°15.505 2°53.593 347.1 10.3 342 -999
2009-06-11 09:29:30 51°15.532 2°53.576 347.1 10.3 342 -999
2009-06-11 09:29:40 51°15.559 2°53.558 347.1 10.3 342 -999
2009-06-11 09:29:50 51°15.586 2°53.54 347.1 10.3 342 -999
2009-06-11 09:30:00 51°15.613 2°53.522 344.3 10.69 338 -999
2009-06-11 09:30:10 51°15.643 2°53.503 344.3 10.69 338 -999
2009-06-11 09:30:20 51°15.671 2°53.484 344.3 10.69 338 -999
2009-06-11 09:30:30 51°15.698 2°53.467 344.3 10.69 338 -999
2009-06-11 09:30:40 51°15.726 2°53.45 344.3 10.69 338 -999
2009-06-11 09:30:50 51°15.754 2°53.433 344.3 10.69 338 -999
2009-06-11 09:31:00 51°15.781 2°53.415 346.3 10.69 338 -999
2009-06-11 09:31:10 51°15.809 2°53.399 346.3 10.69 338 -999
2009-06-11 09:31:20 51°15.837 2°53.383 346.3 10.69 338 -999
2009-06-11 09:31:30 51°15.865 2°53.367 346.3 10.69 338 -999
2009-06-11 09:31:40 51°15.892 2°53.349 346.3 10.69 338 -999
2009-06-11 09:31:50 51°15.92 2°53.332 346.3 10.69 338 -999
2009-06-11 09:32:00 51°15.948 2°53.315 345.6 10.59 339 -999
2009-06-11 09:32:10 51°15.975 2°53.298 345.6 10.59 339 -999
2009-06-11 09:32:20 51°16.002 2°53.281 345.6 10.59 339 -999
2009-06-11 09:32:30 51°16.029 2°53.264 345.6 10.59 339 -999
2009-06-11 09:32:40 51°16.057 2°53.247 345.6 10.59 339 -999
2009-06-11 09:32:50 51°16.084 2°53.231 345.6 10.59 339 -999
2009-06-11 09:33:00 51°16.112 2°53.213 345.8 10.69 338 -999
2009-06-11 09:33:10 51°16.137 2°53.198 345.8 10.69 338 -999
2009-06-11 09:33:20 51°16.164 2°53.18 345.8 10.69 338 -999
2009-06-11 09:33:30 51°16.191 2°53.162 345.8 10.69 338 -999
2009-06-11 09:33:40 51°16.218 2°53.143 345.8 10.69 338 -999
2009-06-11 09:33:50 51°16.245 2°53.124 345.8 10.69 338 -999
2009-06-11 09:34:00 51°16.272 2°53.105 343.5 10.59 337 -999
2009-06-11 09:34:10 51°16.299 2°53.086 343.5 10.59 337 -999
2009-06-11 09:34:20 51°16.326 2°53.068 343.5 10.59 337 -999
2009-06-11 09:34:30 51°16.353 2°53.05 343.5 10.59 337 -999
2009-06-11 09:34:40 51°16.38 2°53.033 343.5 10.59 337 -999
2009-06-11 09:34:50 51°16.407 2°53.015 343.5 10.59 337 -999
2009-06-11 09:35:00 51°16.434 2°52.998 343.6 10.59 339 -999
2009-06-11 09:35:10 51°16.462 2°52.981 343.6 10.59 339 -999
2009-06-11 09:35:20 51°16.49 2°52.965 343.6 10.59 339 -999
2009-06-11 09:35:30 51°16.517 2°52.947 343.6 10.59 339 -999
2009-06-11 09:35:40 51°16.545 2°52.93 343.6 10.59 339 -999
2009-06-11 09:35:50 51°16.573 2°52.914 343.6 10.59 339 -999
2009-06-11 09:36:00 51°16.603 2°52.895 344.3 10.8 340 -999
2009-06-11 09:36:10 51°16.631 2°52.878 344.3 10.8 340 -999
2009-06-11 09:36:20 51°16.659 2°52.861 344.3 10.8 340 -999
2009-06-11 09:36:30 51°16.686 2°52.843 344.3 10.8 340 -999
2009-06-11 09:36:40 51°16.714 2°52.826 344.3 10.8 340 -999
2009-06-11 09:36:50 51°16.741 2°52.809 344.3 10.8 340 -999
2009-06-11 09:37:00 51°16.768 2°52.792 343.3 10.5 339 -999
2009-06-11 09:37:10 51°16.796 2°52.775 343.3 10.5 339 -999
2009-06-11 09:37:20 51°16.823 2°52.759 343.3 10.5 339 -999
2009-06-11 09:37:30 51°16.85 2°52.742 343.3 10.5 339 -999
2009-06-11 09:37:40 51°16.877 2°52.725 343.3 10.5 339 -999
2009-06-11 09:37:50 51°16.904 2°52.708 343.3 10.5 339 -999
2009-06-11 09:38:00 51°16.931 2°52.691 343.6 10.4 338 -999
2009-06-11 09:38:10 51°16.956 2°52.676 343.6 10.4 338 -999
2009-06-11 09:38:20 51°16.983 2°52.659 343.6 10.4 338 -999
2009-06-11 09:38:30 51°17.01 2°52.644 343.6 10.4 338 -999
2009-06-11 09:38:40 51°17.037 2°52.627 343.6 10.4 338 -999
2009-06-11 09:38:50 51°17.064 2°52.61 343.6 10.4 338 -999
2009-06-11 09:39:00 51°17.091 2°52.594 344.3 10.3 340 -999
2009-06-11 09:39:10 51°17.118 2°52.577 344.3 10.3 340 -999
2009-06-11 09:39:20 51°17.145 2°52.56 344.3 10.3 340 -999
2009-06-11 09:39:30 51°17.172 2°52.543 344.3 10.3 340 -999
2009-06-11 09:39:40 51°17.198 2°52.526 344.3 10.3 340 -999
2009-06-11 09:39:50 51°17.226 2°52.51 344.3 10.3 340 -999
2009-06-11 09:40:00 51°17.253 2°52.494 345.5 10.5 340 -999
2009-06-11 09:40:10 51°17.283 2°52.478 345.5 10.5 340 -999
2009-06-11 09:40:20 51°17.311 2°52.463 345.5 10.5 340 -999
2009-06-11 09:40:30 51°17.339 2°52.448 345.5 10.5 340 -999
2009-06-11 09:40:40 51°17.366 2°52.433 345.5 10.5 340 -999
2009-06-11 09:40:50 51°17.394 2°52.418 345.5 10.5 340 -999
2009-06-11 09:41:00 51°17.422 2°52.403 347.6 10.5 341 -999
2009-06-11 09:41:10 51°17.449 2°52.387 347.6 10.5 341 -999
2009-06-11 09:41:20 51°17.476 2°52.373 347.6 10.5 341 -999
2009-06-11 09:41:30 51°17.503 2°52.359 347.6 10.5 341 -999
2009-06-11 09:41:40 51°17.53 2°52.344 347.6 10.5 341 -999
2009-06-11 09:41:50 51°17.557 2°52.329 347.6 10.5 341 -999
2009-06-11 09:42:00 51°17.584 2°52.314 347.6 10.4 340 -999
2009-06-11 09:42:10 51°17.609 2°52.3 347.6 10.4 340 -999
2009-06-11 09:42:20 51°17.636 2°52.286 347.6 10.4 340 -999
2009-06-11 09:42:30 51°17.664 2°52.27 347.6 10.4 340 -999
2009-06-11 09:42:40 51°17.691 2°52.255 347.6 10.4 340 -999
2009-06-11 09:42:50 51°17.718 2°52.24 347.6 10.4 340 -999
2009-06-11 09:43:00 51°17.746 2°52.224 346.8 10.4 340 -999
2009-06-11 09:43:10 51°17.773 2°52.209 346.8 10.4 340 -999
2009-06-11 09:43:20 51°17.801 2°52.194 346.8 10.4 340 -999
2009-06-11 09:43:30 51°17.828 2°52.179 346.8 10.4 340 -999
2009-06-11 09:43:40 51°17.856 2°52.164 346.8 10.4 340 -999
2009-06-11 09:43:50 51°17.883 2°52.148 346.8 10.4 340 -999
2009-06-11 09:44:00 51°17.911 2°52.133 346.8 10.5 343 -999
2009-06-11 09:44:10 51°17.938 2°52.117 346.8 10.5 343 -999
2009-06-11 09:44:20 51°17.966 2°52.102 346.8 10.5 343 -999
2009-06-11 09:44:30 51°17.993 2°52.087 346.8 10.5 343 -999
2009-06-11 09:44:40 51°18.02 2°52.072 346.8 10.5 343 -999
2009-06-11 09:44:50 51°18.048 2°52.057 346.8 10.5 343 -999
2009-06-11 09:45:00 51°18.075 2°52.041 346.6 10.5 341 -999
2009-06-11 09:45:10 51°18.102 2°52.025 346.6 10.5 341 -999
2009-06-11 09:45:20 51°18.132 2°52.008 346.6 10.5 341 -999
2009-06-11 09:45:30 51°18.16 2°51.993 346.6 10.5 341 -999
2009-06-11 09:45:40 51°18.187 2°51.977 346.6 10.5 341 -999
2009-06-11 09:45:50 51°18.215 2°51.961 346.6 10.5 341 -999
2009-06-11 09:46:00 51°18.243 2°51.945 348 10.69 340 -999
2009-06-11 09:46:10 51°18.268 2°51.931 348 10.69 340 -999
2009-06-11 09:46:20 51°18.296 2°51.917 348 10.69 340 -999
2009-06-11 09:46:30 51°18.323 2°51.9 348 10.69 340 -999
2009-06-11 09:46:40 51°18.35 2°51.884 348 10.69 340 -999
2009-06-11 09:46:50 51°18.378 2°51.869 348 10.69 340 -999
2009-06-11 09:47:00 51°18.405 2°51.853 347.1 10.5 340 -999
2009-06-11 09:47:10 51°18.432 2°51.838 347.1 10.5 340 -999
2009-06-11 09:47:20 51°18.46 2°51.822 347.1 10.5 340 -999
2009-06-11 09:47:30 51°18.487 2°51.807 347.1 10.5 340 -999
2009-06-11 09:47:40 51°18.514 2°51.791 347.1 10.5 340 -999
2009-06-11 09:47:50 51°18.542 2°51.774 347.1 10.5 340 -999
2009-06-11 09:48:00 51°18.568 2°51.759 347.3 10.5 340 -999
2009-06-11 09:48:10 51°18.596 2°51.743 347.3 10.5 340 -999
2009-06-11 09:48:20 51°18.623 2°51.727 347.3 10.5 340 -999
2009-06-11 09:48:30 51°18.65 2°51.711 347.3 10.5 340 -999
2009-06-11 09:48:40 51°18.678 2°51.695 347.3 10.5 340 -999
2009-06-11 09:48:50 51°18.705 2°51.679 347.3 10.5 340 -999
2009-06-11 09:49:00 51°18.732 2°51.663 346.6 10.5 340 -999
2009-06-11 09:49:10 51°18.76 2°51.646 346.6 10.5 340 -999
2009-06-11 09:49:20 51°18.788 2°51.631 346.6 10.5 340 -999
2009-06-11 09:49:30 51°18.815 2°51.615 346.6 10.5 340 -999
2009-06-11 09:49:40 51°18.842 2°51.599 346.6 10.5 340 -999
2009-06-11 09:49:50 51°18.87 2°51.583 346.6 10.5 340 -999
2009-06-11 09:50:00 51°18.897 2°51.567 346.5 10.59 339 -999
2009-06-11 09:50:10 51°18.927 2°51.548 346.5 10.59 339 -999
2009-06-11 09:50:20 51°18.954 2°51.532 346.5 10.59 339 -999
2009-06-11 09:50:30 51°18.979 2°51.518 346.5 10.59 339 -999
2009-06-11 09:50:40 51°19.01 2°51.501 346.5 10.59 339 -999
2009-06-11 09:50:50 51°19.035 2°51.488 346.5 10.59 339 -999
2009-06-11 09:51:00 51°19.065 2°51.474 350.1 10.4 344 -999
2009-06-11 09:51:10 51°19.094 2°51.46 350.1 10.4 344 -999
2009-06-11 09:51:20 51°19.122 2°51.447 350.1 10.4 344 -999
2009-06-11 09:51:30 51°19.15 2°51.433 350.1 10.4 344 -999
2009-06-11 09:51:40 51°19.178 2°51.419 350.1 10.4 344 -999
2009-06-11 09:51:50 51°19.206 2°51.406 350.1 10.4 344 -999
2009-06-11 09:52:00 51°19.234 2°51.393 351.5 10.59 345 -999
2009-06-11 09:52:10 51°19.262 2°51.381 351.5 10.59 345 -999
2009-06-11 09:52:20 51°19.29 2°51.368 351.5 10.59 345 -999
2009-06-11 09:52:30 51°19.318 2°51.356 351.5 10.59 345 -999
2009-06-11 09:52:40 51°19.345 2°51.343 351.5 10.59 345 -999
2009-06-11 09:52:50 51°19.373 2°51.329 351.5 10.59 345 -999
2009-06-11 09:53:00 51°19.401 2°51.316 351.8 10.5 343 -999
2009-06-11 09:53:10 51°19.429 2°51.304 351.8 10.5 343 -999
2009-06-11 09:53:20 51°19.456 2°51.29 351.8 10.5 343 -999
2009-06-11 09:53:30 51°19.484 2°51.276 351.8 10.5 343 -999
2009-06-11 09:53:40 51°19.512 2°51.263 351.8 10.5 343 -999
2009-06-11 09:53:50 51°19.54 2°51.249 351.8 10.5 343 -999
2009-06-11 09:54:00 51°19.568 2°51.235 351.8 10.4 344 -999
2009-06-11 09:54:10 51°19.593 2°51.223 351.8 10.4 344 -999
2009-06-11 09:54:20 51°19.621 2°51.21 351.8 10.4 344 -999
2009-06-11 09:54:30 51°19.649 2°51.197 351.8 10.4 344 -999
2009-06-11 09:54:40 51°19.676 2°51.183 351.8 10.4 344 -999
2009-06-11 09:54:50 51°19.704 2°51.17 351.8 10.4 344 -999
2009-06-11 09:55:00 51°19.732 2°51.157 350.8 10.5 344 -999
2009-06-11 09:55:10 51°19.759 2°51.143 350.8 10.5 344 -999
2009-06-11 09:55:20 51°19.787 2°51.132 350.8 10.5 344 -999
2009-06-11 09:55:30 51°19.815 2°51.118 350.8 10.5 344 -999
2009-06-11 09:55:40 51°19.842 2°51.106 350.8 10.5 344 -999
2009-06-11 09:55:50 51°19.87 2°51.093 350.8 10.5 344 -999
2009-06-11 09:56:00 51°19.898 2°51.08 352.3 10.5 345 -999
2009-06-11 09:56:10 51°19.926 2°51.067 352.3 10.5 345 -999
2009-06-11 09:56:20 51°19.954 2°51.054 352.3 10.5 345 -999
2009-06-11 09:56:30 51°19.982 2°51.041 352.3 10.5 345 -999
2009-06-11 09:56:40 51°20.01 2°51.027 352.3 10.5 345 -999
2009-06-11 09:56:50 51°20.038 2°51.013 352.3 10.5 345 -999
2009-06-11 09:57:00 51°20.066 2°50.999 350.1 10.59 345 -999
2009-06-11 09:57:10 51°20.094 2°50.985 350.1 10.59 345 -999
2009-06-11 09:57:20 51°20.122 2°50.972 350.1 10.59 345 -999
2009-06-11 09:57:30 51°20.15 2°50.959 350.1 10.59 345 -999
2009-06-11 09:57:40 51°20.178 2°50.946 350.1 10.59 345 -999
2009-06-11 09:57:50 51°20.207 2°50.933 350.1 10.59 345 -999
2009-06-11 09:58:00 51°20.235 2°50.92 351.3 10.69 344 -999
2009-06-11 09:58:10 51°20.264 2°50.906 351.3 10.69 344 -999
2009-06-11 09:58:20 51°20.292 2°50.892 351.3 10.69 344 -999
2009-06-11 09:58:30 51°20.32 2°50.878 351.3 10.69 344 -999
2009-06-11 09:58:40 51°20.348 2°50.864 351.3 10.69 344 -999
2009-06-11 09:58:50 51°20.375 2°50.85 351.3 10.69 344 -999
2009-06-11 09:59:00 51°20.403 2°50.836 350.8 10.69 342 -999
2009-06-11 09:59:10 51°20.434 2°50.82 350.8 10.69 342 -999
2009-06-11 09:59:20 51°20.462 2°50.805 350.8 10.69 342 -999
2009-06-11 09:59:30 51°20.49 2°50.791 350.8 10.69 342 -999
2009-06-11 09:59:40 51°20.519 2°50.776 350.8 10.69 342 -999
2009-06-11 09:59:50 51°20.547 2°50.762 350.8 10.69 342 -999
2009-06-11 10:00:00 51°20.576 2°50.749 352.1 10.69 344 -999
2009-06-11 10:00:10 51°20.604 2°50.736 352.1 10.69 344 -999
2009-06-11 10:00:20 51°20.632 2°50.721 352.1 10.69 344 -999
2009-06-11 10:00:30 51°20.66 2°50.708 352.1 10.69 344 -999
2009-06-11 10:00:40 51°20.688 2°50.694 352.1 10.69 344 -999
2009-06-11 10:00:50 51°20.715 2°50.68 352.1 10.69 344 -999
2009-06-11 10:01:00 51°20.744 2°50.665 350.5 10.59 342 -999
2009-06-11 10:01:10 51°20.772 2°50.65 350.5 10.59 342 -999
2009-06-11 10:01:20 51°20.8 2°50.637 350.5 10.59 342 -999
2009-06-11 10:01:30 51°20.829 2°50.621 350.5 10.59 342 -999
2009-06-11 10:01:40 51°20.857 2°50.606 350.5 10.59 342 -999
2009-06-11 10:01:50 51°20.886 2°50.591 350.5 10.59 342 -999
2009-06-11 10:02:00 51°20.914 2°50.577 351.8 10.8 341 -999
2009-06-11 10:02:10 51°20.939 2°50.565 351.8 10.8 341 -999
2009-06-11 10:02:20 51°20.967 2°50.55 351.8 10.8 341 -999
2009-06-11 10:02:30 51°20.996 2°50.536 351.8 10.8 341 -999
2009-06-11 10:02:40 51°21.024 2°50.522 351.8 10.8 341 -999
2009-06-11 10:02:50 51°21.053 2°50.508 351.8 10.8 341 -999
2009-06-11 10:03:00 51°21.081 2°50.494 351.3 10.59 344 -999
2009-06-11 10:03:10 51°21.11 2°50.481 351.3 10.59 344 -999
2009-06-11 10:03:20 51°21.138 2°50.467 351.3 10.59 344 -999
2009-06-11 10:03:30 51°21.167 2°50.454 351.3 10.59 344 -999
2009-06-11 10:03:40 51°21.196 2°50.44 351.3 10.59 344 -999
2009-06-11 10:03:50 51°21.225 2°50.427 351.3 10.59 344 -999
2009-06-11 10:04:00 51°21.253 2°50.413 351.6 10.69 343 -999
2009-06-11 10:04:10 51°21.282 2°50.4 351.6 10.69 343 -999
2009-06-11 10:04:20 51°21.31 2°50.387 351.6 10.69 343 -999
2009-06-11 10:04:30 51°21.339 2°50.373 351.6 10.69 343 -999
2009-06-11 10:04:40 51°21.367 2°50.359 351.6 10.69 343 -999
2009-06-11 10:04:50 51°21.396 2°50.344 351.6 10.69 343 -999
2009-06-11 10:05:00 51°21.425 2°50.33 351 10.8 341 -999
2009-06-11 10:05:10 51°21.453 2°50.317 351 10.8 341 -999
2009-06-11 10:05:20 51°21.484 2°50.301 351 10.8 341 -999
2009-06-11 10:05:30 51°21.51 2°50.29 351 10.8 341 -999
2009-06-11 10:05:40 51°21.541 2°50.276 351 10.8 341 -999
2009-06-11 10:05:50 51°21.567 2°50.264 351 10.8 341 -999
2009-06-11 10:06:00 51°21.599 2°50.249 351.5 10.8 344 -999
2009-06-11 10:06:10 51°21.627 2°50.237 351.5 10.8 344 -999
2009-06-11 10:06:20 51°21.653 2°50.224 351.5 10.8 344 -999
2009-06-11 10:06:30 51°21.682 2°50.21 351.5 10.8 344 -999
2009-06-11 10:06:40 51°21.711 2°50.197 351.5 10.8 344 -999
2009-06-11 10:06:50 51°21.739 2°50.184 351.5 10.8 344 -999
2009-06-11 10:07:00 51°21.766 2°50.17 352.1 10.69 341 -999
2009-06-11 10:07:10 51°21.794 2°50.157 352.1 10.69 341 -999
2009-06-11 10:07:20 51°21.822 2°50.143 352.1 10.69 341 -999
2009-06-11 10:07:30 51°21.85 2°50.128 352.1 10.69 341 -999
2009-06-11 10:07:40 51°21.878 2°50.114 352.1 10.69 341 -999
2009-06-11 10:07:50 51°21.906 2°50.101 352.1 10.69 341 -999
2009-06-11 10:08:00 51°21.934 2°50.087 351.8 10.69 343 -999
2009-06-11 10:08:10 51°21.965 2°50.073 351.8 10.69 343 -999
2009-06-11 10:08:20 51°21.993 2°50.058 351.8 10.69 343 -999
2009-06-11 10:08:30 51°22.022 2°50.045 351.8 10.69 343 -999
2009-06-11 10:08:40 51°22.05 2°50.031 351.8 10.69 343 -999
2009-06-11 10:08:50 51°22.078 2°50.017 351.8 10.69 343 -999
2009-06-11 10:09:00 51°22.107 2°50.003 350.6 10.69 342 -999
2009-06-11 10:09:10 51°22.135 2°49.989 350.6 10.69 342 -999
2009-06-11 10:09:20 51°22.164 2°49.974 350.6 10.69 342 -999
2009-06-11 10:09:30 51°22.192 2°49.962 350.6 10.69 342 -999
2009-06-11 10:09:40 51°22.22 2°49.949 350.6 10.69 342 -999
2009-06-11 10:09:50 51°22.248 2°49.935 350.6 10.69 342 -999
2009-06-11 10:10:00 51°22.276 2°49.922 351.5 10.59 343 -999
2009-06-11 10:10:10 51°22.305 2°49.908 351.5 10.59 343 -999
2009-06-11 10:10:20 51°22.333 2°49.894 351.5 10.59 343 -999
2009-06-11 10:10:30 51°22.362 2°49.882 351.5 10.59 343 -999
2009-06-11 10:10:40 51°22.39 2°49.869 351.5 10.59 343 -999
2009-06-11 10:10:50 51°22.419 2°49.857 351.5 10.59 343 -999
2009-06-11 10:11:00 51°22.447 2°49.844 351.3 10.8 344 -999
2009-06-11 10:11:10 51°22.473 2°49.832 351.3 10.8 344 -999
2009-06-11 10:11:20 51°22.501 2°49.819 351.3 10.8 344 -999
2009-06-11 10:11:30 51°22.529 2°49.806 351.3 10.8 344 -999
2009-06-11 10:11:40 51°22.558 2°49.793 351.3 10.8 344 -999
2009-06-11 10:11:50 51°22.587 2°49.78 351.3 10.8 344 -999
2009-06-11 10:12:00 51°22.615 2°49.768 352 10.69 343 -999
2009-06-11 10:12:10 51°22.643 2°49.755 352 10.69 343 -999
2009-06-11 10:12:20 51°22.671 2°49.743 352 10.69 343 -999
2009-06-11 10:12:30 51°22.699 2°49.729 352 10.69 343 -999
2009-06-11 10:12:40 51°22.727 2°49.716 352 10.69 343 -999
2009-06-11 10:12:50 51°22.755 2°49.704 352 10.69 343 -999
2009-06-11 10:13:00 51°22.784 2°49.692 351.1 10.4 346 -999
2009-06-11 10:13:10 51°22.811 2°49.679 351.1 10.4 346 -999
2009-06-11 10:13:20 51°22.839 2°49.666 351.1 10.4 346 -999
2009-06-11 10:13:30 51°22.867 2°49.654 351.1 10.4 346 -999
2009-06-11 10:13:40 51°22.895 2°49.641 351.1 10.4 346 -999
2009-06-11 10:13:50 51°22.923 2°49.629 351.1 10.4 346 -999
2009-06-11 10:14:00 51°22.951 2°49.615 349.1 10.4 344 -999
2009-06-11 10:14:10 51°22.978 2°49.599 349.1 10.4 344 -999
2009-06-11 10:14:20 51°23.006 2°49.583 349.1 10.4 344 -999
2009-06-11 10:14:30 51°23.032 2°49.566 349.1 10.4 344 -999
2009-06-11 10:14:40 51°23.059 2°49.55 349.1 10.4 344 -999
2009-06-11 10:14:50 51°23.086 2°49.533 349.1 10.4 344 -999
2009-06-11 10:15:00 51°23.113 2°49.516 348 10.4 338 -999
2009-06-11 10:15:10 51°23.142 2°49.498 348 10.4 338 -999
2009-06-11 10:15:20 51°23.169 2°49.481 348 10.4 338 -999
2009-06-11 10:15:30 51°23.196 2°49.465 348 10.4 338 -999
2009-06-11 10:15:40 51°23.22 2°49.449 348 10.4 338 -999
2009-06-11 10:15:50 51°23.247 2°49.433 348 10.4 338 -999
2009-06-11 10:16:00 51°23.277 2°49.414 348.1 10.5 339 -999
2009-06-11 10:16:10 51°23.301 2°49.4 348.1 10.5 339 -999
2009-06-11 10:16:20 51°23.329 2°49.382 348.1 10.5 339 -999
2009-06-11 10:16:30 51°23.356 2°49.365 348.1 10.5 339 -999
2009-06-11 10:16:40 51°23.386 2°49.347 348.1 10.5 339 -999
2009-06-11 10:16:50 51°23.411 2°49.332 348.1 10.5 339 -999
2009-06-11 10:17:00 51°23.441 2°49.313 349 10.59 338 -999
2009-06-11 10:17:10 51°23.468 2°49.297 349 10.59 338 -999
2009-06-11 10:17:20 51°23.493 2°49.28 349 10.59 338 -999
2009-06-11 10:17:30 51°23.521 2°49.263 349 10.59 338 -999
2009-06-11 10:17:40 51°23.548 2°49.247 349 10.59 338 -999
2009-06-11 10:17:50 51°23.575 2°49.231 349 10.59 338 -999
2009-06-11 10:18:00 51°23.603 2°49.213 347.8 10.59 342 -999
2009-06-11 10:18:10 51°23.63 2°49.197 347.8 10.59 342 -999
2009-06-11 10:18:20 51°23.658 2°49.179 347.8 10.59 342 -999
2009-06-11 10:18:30 51°23.685 2°49.16 347.8 10.59 342 -999
2009-06-11 10:18:40 51°23.712 2°49.141 347.8 10.59 342 -999
2009-06-11 10:18:50 51°23.739 2°49.123 347.8 10.59 342 -999
2009-06-11 10:19:00 51°23.767 2°49.104 348.1 10.69 338 -999
2009-06-11 10:19:10 51°23.794 2°49.087 348.1 10.69 338 -999
2009-06-11 10:19:20 51°23.822 2°49.069 348.1 10.69 338 -999
2009-06-11 10:19:30 51°23.85 2°49.052 348.1 10.69 338 -999
2009-06-11 10:19:40 51°23.877 2°49.035 348.1 10.69 338 -999
2009-06-11 10:19:50 51°23.905 2°49.019 348.1 10.69 338 -999
2009-06-11 10:20:00 51°23.932 2°49 348.3 10.5 340 -999
2009-06-11 10:20:10 51°23.962 2°48.979 348.3 10.5 340 -999
2009-06-11 10:20:20 51°23.989 2°48.961 348.3 10.5 340 -999
2009-06-11 10:20:30 51°24.016 2°48.944 348.3 10.5 340 -999
2009-06-11 10:20:40 51°24.044 2°48.926 348.3 10.5 340 -999
2009-06-11 10:20:50 51°24.071 2°48.908 348.3 10.5 340 -999
2009-06-11 10:21:00 51°24.099 2°48.89 348.8 10.9 336 -999
2009-06-11 10:21:10 51°24.127 2°48.872 348.8 10.9 336 -999
2009-06-11 10:21:20 51°24.154 2°48.854 348.8 10.9 336 -999
2009-06-11 10:21:30 51°24.182 2°48.835 348.8 10.9 336 -999
2009-06-11 10:21:40 51°24.21 2°48.818 348.8 10.9 336 -999
2009-06-11 10:21:50 51°24.238 2°48.801 348.8 10.9 336 -999
2009-06-11 10:22:00 51°24.266 2°48.784 350.1 10.8 339 -999
2009-06-11 10:22:10 51°24.291 2°48.77 350.1 10.8 339 -999
2009-06-11 10:22:20 51°24.319 2°48.754 350.1 10.8 339 -999
2009-06-11 10:22:30 51°24.347 2°48.739 350.1 10.8 339 -999
2009-06-11 10:22:40 51°24.375 2°48.724 350.1 10.8 339 -999
2009-06-11 10:22:50 51°24.404 2°48.708 350.1 10.8 339 -999
2009-06-11 10:23:00 51°24.432 2°48.692 352.1 10.69 341 -999
2009-06-11 10:23:10 51°24.46 2°48.678 352.1 10.69 341 -999
2009-06-11 10:23:20 51°24.488 2°48.663 352.1 10.69 341 -999
2009-06-11 10:23:30 51°24.516 2°48.648 352.1 10.69 341 -999
2009-06-11 10:23:40 51°24.544 2°48.633 352.1 10.69 341 -999
2009-06-11 10:23:50 51°24.573 2°48.62 352.1 10.69 341 -999
2009-06-11 10:24:00 51°24.601 2°48.605 352 10.8 343 -999
2009-06-11 10:24:10 51°24.629 2°48.589 352 10.8 343 -999
2009-06-11 10:24:20 51°24.658 2°48.573 352 10.8 343 -999
2009-06-11 10:24:30 51°24.686 2°48.558 352 10.8 343 -999
2009-06-11 10:24:40 51°24.714 2°48.542 352 10.8 343 -999
2009-06-11 10:24:50 51°24.742 2°48.526 352 10.8 343 -999
2009-06-11 10:25:00 51°24.771 2°48.512 352.5 10.69 344 -999
2009-06-11 10:25:10 51°24.799 2°48.497 352.5 10.69 344 -999
2009-06-11 10:25:20 51°24.827 2°48.482 352.5 10.69 344 -999
2009-06-11 10:25:30 51°24.855 2°48.466 352.5 10.69 344 -999
2009-06-11 10:25:40 51°24.879 2°48.452 352.5 10.69 344 -999
2009-06-11 10:25:50 51°24.898 2°48.44 352.5 10.69 344 -999
2009-06-11 10:26:00 51°24.915 2°48.428 351.8 6.2 334 -999
2009-06-11 10:26:10 51°24.929 2°48.412 351.8 6.2 334 -999
2009-06-11 10:26:20 51°24.939 2°48.395 351.8 6.2 334 -999
2009-06-11 10:26:30 51°24.946 2°48.377 351.8 6.2 334 -999
2009-06-11 10:26:40 51°24.952 2°48.36 351.8 6.2 334 -999